Aviation Digital Data Service (ADDS)

Output produced by TAFs form (0453 UTC 30 March 2017)
found at http://www.aviationweather.gov/adds/tafs/
 
METAR text: ZJHK 300400Z 15005MPS 120V180 9999 BKN023 30/24 Q1016 NOSIG
Conditions at: ZJHK (HAIKOU , CN) observed 0400 UTC 30 March 2017
Temperature: 30.0°C (86°F)
Dewpoint: 24.0°C (75°F) [RH = 70%]
Pressure (altimeter): 30.00 inches Hg (1016.0 mb)
Winds: from the SSE (150 degrees) at 12 MPH (10 knots; 5.2 m/s)
Visibility: 6 or more miles (10+ km)
Ceiling: 2300 feet AGL
Clouds: broken clouds at 2300 feet AGL
Weather: no significant weather observed at this time

Forecast for: ZJHK (HAIKOU , CN)
Text: TAF ZJHK 300315Z 3006/3106 12004MPS 5000 BR SCT016 TX29/3006Z TN22/3021Z
Forecast period: 0600 UTC 30 March 2017 to 0600 UTC 31 March 2017
Forecast type: FROM: standard forecast or significant change
Winds: from the ESE (120 degrees) at 9 MPH (8 knots; 4.2 m/s)
Visibility: 3 miles (5 km)
Clouds: scattered clouds at 1600 feet AGL
Weather: BR  (mist)